Time,TemperatureF,DewpointF,PressureIn,WindDirection,WindDirectionDegrees,WindSpeedMPH,WindSpeedGustMPH,Humidity,HourlyPrecipIn,Conditions,Clouds,dailyrainin,SoftwareType,DateUTC
2013-01-10 00:05:00,25.0,20.0,30.42,SW,223,0.0,5.0,81,0.00,,,0.12,Wunderground v.1.13,2013-01-10 06:05:00,
2013-01-10 00:15:00,25.0,19.7,30.42,SW,223,0.0,5.0,80,0.00,,,0.12,Wunderground v.1.13,2013-01-10 06:15:00,
2013-01-10 00:20:00,25.0,19.7,30.42,SW,223,0.0,5.0,80,0.00,,,0.12,Wunderground v.1.13,2013-01-10 06:20:00,
2013-01-10 00:30:00,24.8,19.5,30.42,SW,223,0.0,5.0,80,0.00,,,0.12,Wunderground v.1.13,2013-01-10 06:30:00,
2013-01-10 00:40:00,24.5,19.2,30.42,SW,223,0.0,1.0,80,0.00,,,0.12,Wunderground v.1.13,2013-01-10 06:40:00,
2013-01-10 00:45:00,24.4,19.1,30.42,SW,223,0.0,1.0,80,0.00,,,0.12,Wunderground v.1.13,2013-01-10 06:45:00,
2013-01-10 00:50:00,24.1,18.8,30.42,SW,223,0.0,1.0,80,0.00,,,0.12,Wunderground v.1.13,2013-01-10 06:50:00,
2013-01-10 00:55:00,23.8,18.5,30.42,SW,223,0.0,1.0,80,0.00,,,0.12,Wunderground v.1.13,2013-01-10 06:55:00,
2013-01-10 01:00:00,23.5,18.2,30.42,SW,223,0.0,1.0,80,0.00,,,0.12,Wunderground v.1.13,2013-01-10 07:00:00,
2013-01-10 01:05:00,23.2,18.2,30.42,SW,223,0.0,0.0,81,0.00,,,0.12,Wunderground v.1.13,2013-01-10 07:05:00,
2013-01-10 01:15:00,22.9,18.2,30.42,SW,223,0.0,0.0,82,0.00,,,0.12,Wunderground v.1.13,2013-01-10 07:15:00,
2013-01-10 01:20:00,22.7,18.0,30.42,SW,223,0.0,0.0,82,0.00,,,0.12,Wunderground v.1.13,2013-01-10 07:20:00,
2013-01-10 01:30:00,22.2,17.8,30.42,SW,223,0.0,0.0,83,0.00,,,0.12,Wunderground v.1.13,2013-01-10 07:30:00,
2013-01-10 01:35:00,21.9,17.5,30.42,SW,223,0.0,0.0,83,0.00,,,0.12,Wunderground v.1.13,2013-01-10 07:35:00,
2013-01-10 01:40:00,21.8,17.4,30.42,SW,223,0.0,0.0,83,0.00,,,0.12,Wunderground v.1.13,2013-01-10 07:40:00,
2013-01-10 01:45:00,21.6,17.2,30.42,SW,223,0.0,0.0,83,0.00,,,0.12,Wunderground v.1.13,2013-01-10 07:45:00,
2013-01-10 01:50:00,21.3,17.2,30.42,SW,223,0.0,0.0,84,0.00,,,0.12,Wunderground v.1.13,2013-01-10 07:50:00,
2013-01-10 01:55:00,21.1,17.0,30.42,SW,223,0.0,0.0,84,0.00,,,0.12,Wunderground v.1.13,2013-01-10 07:55:00,
2013-01-10 02:00:00,21.1,17.3,30.42,SW,223,0.0,0.0,85,0.00,,,0.12,Wunderground v.1.13,2013-01-10 08:00:00,
2013-01-10 02:05:00,21.0,17.2,30.44,SW,223,0.0,0.0,85,0.00,,,0.12,Wunderground v.1.13,2013-01-10 08:05:00,
2013-01-10 02:15:00,21.0,17.5,30.44,SW,223,0.0,0.0,86,0.00,,,0.12,Wunderground v.1.13,2013-01-10 08:15:00,
2013-01-10 02:20:00,21.0,17.5,30.44,SW,223,0.0,0.0,86,0.00,,,0.12,Wunderground v.1.13,2013-01-10 08:20:00,
2013-01-10 02:30:00,21.0,17.7,30.44,SW,223,0.0,0.0,87,0.00,,,0.12,Wunderground v.1.13,2013-01-10 08:30:00,
2013-01-10 02:35:00,20.8,17.5,30.45,SW,223,0.0,0.0,87,0.00,,,0.12,Wunderground v.1.13,2013-01-10 08:35:00,
2013-01-10 02:45:00,20.8,17.5,30.45,SW,223,0.0,0.0,87,0.00,,,0.12,Wunderground v.1.13,2013-01-10 08:45:00,
2013-01-10 02:50:00,20.8,17.5,30.44,SW,223,0.0,0.0,87,0.00,,,0.12,Wunderground v.1.13,2013-01-10 08:50:00,
2013-01-10 02:55:00,20.8,17.5,30.44,SW,223,0.0,0.0,87,0.00,,,0.12,Wunderground v.1.13,2013-01-10 08:55:00,
2013-01-10 03:05:00,20.8,17.5,30.44,SW,223,0.0,0.0,87,0.00,,,0.12,Wunderground v.1.13,2013-01-10 09:05:00,
2013-01-10 03:15:00,20.6,17.6,30.44,SW,223,0.0,0.0,88,0.00,,,0.12,Wunderground v.1.13,2013-01-10 09:15:00,
2013-01-10 03:20:00,20.5,17.5,30.43,SW,223,0.0,0.0,88,0.00,,,0.12,Wunderground v.1.13,2013-01-10 09:20:00,
2013-01-10 03:25:00,20.3,17.3,30.43,SW,223,0.0,0.0,88,0.00,,,0.12,Wunderground v.1.13,2013-01-10 09:25:00,
2013-01-10 03:35:00,20.3,17.3,30.42,SW,223,0.0,0.0,88,0.00,,,0.12,Wunderground v.1.13,2013-01-10 09:35:00,
2013-01-10 03:40:00,20.3,17.3,30.42,SW,223,0.0,0.0,88,0.00,,,0.12,Wunderground v.1.13,2013-01-10 09:40:00,
2013-01-10 03:45:00,20.0,17.0,30.42,SW,223,0.0,0.0,88,0.00,,,0.12,Wunderground v.1.13,2013-01-10 09:45:00,
2013-01-10 03:50:00,19.9,16.9,30.42,SW,223,0.0,0.0,88,0.00,,,0.12,Wunderground v.1.13,2013-01-10 09:50:00,
2013-01-10 04:00:00,19.7,16.7,30.42,SW,223,0.0,0.0,88,0.00,,,0.12,Wunderground v.1.13,2013-01-10 10:00:00,
2013-01-10 04:05:00,19.5,16.5,30.43,SW,223,0.0,0.0,88,0.00,,,0.12,Wunderground v.1.13,2013-01-10 10:05:00,
2013-01-10 04:15:00,19.4,16.7,30.43,SW,223,0.0,0.0,89,0.00,,,0.12,Wunderground v.1.13,2013-01-10 10:15:00,
2013-01-10 04:25:00,19.4,16.7,30.43,SW,223,0.0,0.0,89,0.00,,,0.12,Wunderground v.1.13,2013-01-10 10:25:00,
2013-01-10 04:30:00,19.4,16.7,30.43,SW,223,0.0,0.0,89,0.00,,,0.12,Wunderground v.1.13,2013-01-10 10:30:00,
2013-01-10 04:40:00,19.2,16.5,30.43,SW,223,0.0,0.0,89,0.00,,,0.12,Wunderground v.1.13,2013-01-10 10:40:00,
2013-01-10 04:45:00,19.2,16.5,30.43,SW,223,0.0,0.0,89,0.00,,,0.12,Wunderground v.1.13,2013-01-10 10:45:00,
2013-01-10 04:55:00,19.4,16.9,30.43,SW,223,0.0,0.0,90,0.00,,,0.12,Wunderground v.1.13,2013-01-10 10:55:00,
2013-01-10 05:00:00,19.4,16.7,30.43,SW,223,0.0,0.0,89,0.00,,,0.12,Wunderground v.1.13,2013-01-10 11:00:00,
2013-01-10 05:05:00,19.2,16.5,30.42,SW,223,0.0,0.0,89,0.00,,,0.00,Wunderground v.1.13,2013-01-10 11:05:00,
2013-01-10 05:15:00,18.9,16.5,30.42,SW,223,0.0,0.0,90,0.00,,,0.00,Wunderground v.1.13,2013-01-10 11:15:00,
2013-01-10 05:25:00,18.9,16.5,30.43,SW,223,0.0,0.0,90,0.00,,,0.00,Wunderground v.1.13,2013-01-10 11:25:00,
2013-01-10 05:30:00,18.9,16.5,30.43,SW,223,0.0,0.0,90,0.00,,,0.00,Wunderground v.1.13,2013-01-10 11:30:00,
2013-01-10 05:40:00,19.1,16.7,30.43,SW,223,0.0,0.0,90,0.00,,,0.00,Wunderground v.1.13,2013-01-10 11:40:00,
2013-01-10 05:45:00,19.1,16.7,30.43,SW,223,0.0,0.0,90,0.00,,,0.00,Wunderground v.1.13,2013-01-10 11:45:00,
2013-01-10 05:50:00,19.2,16.7,30.43,SW,223,0.0,0.0,90,0.00,,,0.00,Wunderground v.1.13,2013-01-10 11:50:00,
2013-01-10 05:55:00,19.2,16.7,30.43,SW,223,0.0,0.0,90,0.00,,,0.00,Wunderground v.1.13,2013-01-10 11:55:00,
2013-01-10 06:05:00,19.2,16.7,30.43,SW,223,0.0,0.0,90,0.00,,,0.00,Wunderground v.1.13,2013-01-10 12:05:00,
2013-01-10 06:15:00,19.2,16.7,30.43,SW,223,0.0,0.0,90,0.00,,,0.00,Wunderground v.1.13,2013-01-10 12:15:00,
2013-01-10 06:25:00,18.9,16.5,30.43,SW,223,0.0,0.0,90,0.00,,,0.00,Wunderground v.1.13,2013-01-10 12:25:00,
2013-01-10 06:30:00,19.1,16.9,30.43,SW,223,0.0,0.0,91,0.00,,,0.00,Wunderground v.1.13,2013-01-10 12:30:00,
2013-01-10 06:40:00,18.9,16.5,30.42,SW,223,0.0,0.0,90,0.00,,,0.00,Wunderground v.1.13,2013-01-10 12:40:00,
2013-01-10 06:45:00,18.9,16.5,30.42,SW,223,0.0,0.0,90,0.00,,,0.00,Wunderground v.1.13,2013-01-10 12:45:00,
2013-01-10 06:55:00,19.1,16.9,30.42,SW,223,0.0,0.0,91,0.00,,,0.00,Wunderground v.1.13,2013-01-10 12:55:00,
2013-01-10 07:00:00,18.9,16.7,30.42,SW,223,0.0,0.0,91,0.00,,,0.00,Wunderground v.1.13,2013-01-10 13:00:00,
2013-01-10 07:05:00,18.9,16.7,30.41,SW,223,0.0,0.0,91,0.00,,,0.00,Wunderground v.1.13,2013-01-10 13:05:00,
2013-01-10 07:15:00,18.8,16.4,30.41,SW,223,0.0,0.0,90,0.00,,,0.00,Wunderground v.1.13,2013-01-10 13:15:00,
2013-01-10 07:25:00,18.6,16.4,30.42,SW,223,0.0,0.0,91,0.00,,,0.00,Wunderground v.1.13,2013-01-10 13:25:00,
2013-01-10 07:35:00,18.6,16.4,30.42,SW,223,0.0,0.0,91,0.00,,,0.00,Wunderground v.1.13,2013-01-10 13:35:00,
2013-01-10 07:45:00,18.4,16.2,30.42,SW,223,0.0,0.0,91,0.00,,,0.00,Wunderground v.1.13,2013-01-10 13:45:00,
2013-01-10 07:50:00,18.4,16.2,30.42,SW,223,0.0,0.0,91,0.00,,,0.00,Wunderground v.1.13,2013-01-10 13:50:00,
2013-01-10 07:55:00,18.6,16.4,30.42,SW,223,0.0,0.0,91,0.00,,,0.00,Wunderground v.1.13,2013-01-10 13:55:00,
2013-01-10 08:00:00,18.8,16.6,30.42,SW,223,0.0,0.0,91,0.00,,,0.00,Wunderground v.1.13,2013-01-10 14:00:00,
2013-01-10 08:05:00,18.9,16.7,30.42,SW,223,0.0,0.0,91,0.00,,,0.00,Wunderground v.1.13,2013-01-10 14:05:00,
2013-01-10 08:15:00,19.9,18.0,30.42,SW,223,0.0,0.0,92,0.00,,,0.00,Wunderground v.1.13,2013-01-10 14:15:00,
2013-01-10 08:20:00,20.3,18.3,30.42,SW,223,0.0,0.0,92,0.00,,,0.00,Wunderground v.1.13,2013-01-10 14:20:00,
2013-01-10 08:25:00,21.0,19.0,30.42,SW,223,0.0,0.0,92,0.00,,,0.00,Wunderground v.1.13,2013-01-10 14:25:00,
2013-01-10 08:35:00,22.1,20.1,30.42,SW,223,0.0,0.0,92,0.00,,,0.00,Wunderground v.1.13,2013-01-10 14:35:00,
2013-01-10 08:40:00,22.7,20.7,30.42,SW,223,0.0,0.0,92,0.00,,,0.00,Wunderground v.1.13,2013-01-10 14:40:00,
2013-01-10 08:50:00,23.8,21.8,30.41,SW,219,0.0,0.0,92,0.00,,,0.00,Wunderground v.1.13,2013-01-10 14:50:00,
2013-01-10 08:55:00,24.2,22.2,30.41,ESE,115,0.0,1.0,92,0.00,,,0.00,Wunderground v.1.13,2013-01-10 14:55:00,
2013-01-10 09:05:00,25.7,23.4,30.41,ESE,115,0.0,4.0,91,0.00,,,0.00,Wunderground v.1.13,2013-01-10 15:05:00,
2013-01-10 09:15:00,27.0,23.9,30.41,ESE,114,0.0,4.0,88,0.00,,,0.00,Wunderground v.1.13,2013-01-10 15:15:00,
2013-01-10 09:20:00,27.8,23.9,30.39,ESE,114,0.0,4.0,85,0.00,,,0.00,Wunderground v.1.13,2013-01-10 15:20:00,
2013-01-10 09:30:00,29.0,23.0,30.39,ESE,117,0.0,4.0,78,0.00,,,0.00,Wunderground v.1.13,2013-01-10 15:30:00,
2013-01-10 09:40:00,30.1,22.5,30.38,ESE,114,0.0,4.0,73,0.00,,,0.00,Wunderground v.1.13,2013-01-10 15:40:00,
2013-01-10 09:50:00,31.0,22.0,30.38,SE,132,1.0,1.0,69,0.00,,,0.00,Wunderground v.1.13,2013-01-10 15:50:00,
2013-01-10 10:00:00,31.6,21.9,30.38,ESE,118,1.0,1.0,67,0.00,,,0.00,Wunderground v.1.13,2013-01-10 16:00:00,
2013-01-10 10:05:00,31.8,22.1,30.36,SE,130,1.0,1.0,67,0.00,,,0.00,Wunderground v.1.13,2013-01-10 16:05:00,
2013-01-10 10:15:00,32.2,22.5,30.36,SE,132,0.0,6.0,67,0.00,,,0.00,Wunderground v.1.13,2013-01-10 16:15:00,
2013-01-10 10:20:00,32.5,23.1,30.36,SSE,155,0.0,6.0,68,0.00,,,0.00,Wunderground v.1.13,2013-01-10 16:20:00,
2013-01-10 10:25:00,32.8,23.0,30.36,SE,143,1.0,1.0,67,0.00,,,0.00,Wunderground v.1.13,2013-01-10 16:25:00,
2013-01-10 10:35:00,33.4,23.6,30.36,SE,146,2.0,2.0,67,0.00,,,0.00,Wunderground v.1.13,2013-01-10 16:35:00,
2013-01-10 10:45:00,34.0,24.2,30.36,ESE,102,2.0,9.0,67,0.00,,,0.00,Wunderground v.1.13,2013-01-10 16:45:00,
2013-01-10 10:50:00,34.3,24.8,30.34,SSE,148,2.0,9.0,68,0.00,,,0.00,Wunderground v.1.13,2013-01-10 16:50:00,
2013-01-10 11:00:00,34.9,25.4,30.34,SE,136,2.0,9.0,68,0.00,,,0.00,Wunderground v.1.13,2013-01-10 17:00:00,
2013-01-10 11:05:00,35.2,25.7,30.32,SSE,153,1.0,13.0,68,0.00,,,0.00,Wunderground v.1.13,2013-01-10 17:05:00,
2013-01-10 11:15:00,36.2,26.6,30.32,ESE,103,1.0,13.0,68,0.00,,,0.00,Wunderground v.1.13,2013-01-10 17:15:00,
2013-01-10 11:25:00,36.6,27.0,30.31,SE,130,2.0,2.0,68,0.00,,,0.01,Wunderground v.1.13,2013-01-10 17:25:00,
2013-01-10 11:30:00,36.6,27.4,30.31,SSE,155,2.0,13.0,69,0.00,,,0.01,Wunderground v.1.13,2013-01-10 17:30:00,
2013-01-10 11:35:00,36.8,27.9,30.29,ESE,109,1.0,8.0,70,0.00,,,0.01,Wunderground v.1.13,2013-01-10 17:35:00,
2013-01-10 11:45:00,37.2,28.3,30.29,SE,146,0.0,8.0,70,0.00,,,0.01,Wunderground v.1.13,2013-01-10 17:45:00,
2013-01-10 11:55:00,37.5,28.6,30.27,SE,142,2.0,2.0,70,0.00,,,0.01,Wunderground v.1.13,2013-01-10 17:55:00,
2013-01-10 12:05:00,37.5,28.6,30.26,East,98,3.0,3.0,70,0.00,,,0.01,Wunderground v.1.13,2013-01-10 18:05:00,
2013-01-10 12:15:00,37.8,28.9,30.26,ESE,112,2.0,2.0,70,0.00,,,0.01,Wunderground v.1.13,2013-01-10 18:15:00,
2013-01-10 12:20:00,37.9,28.6,30.25,SSE,150,1.0,1.0,69,0.00,,,0.01,Wunderground v.1.13,2013-01-10 18:20:00,
2013-01-10 12:25:00,37.9,28.6,30.25,ESE,118,2.0,2.0,69,0.00,,,0.01,Wunderground v.1.13,2013-01-10 18:25:00,
2013-01-10 12:30:00,38.0,29.1,30.25,ESE,113,2.0,10.0,70,0.00,,,0.01,Wunderground v.1.13,2013-01-10 18:30:00,
2013-01-10 12:35:00,38.0,29.1,30.23,East,99,2.0,2.0,70,0.00,,,0.01,Wunderground v.1.13,2013-01-10 18:35:00,
2013-01-10 12:45:00,38.3,29.0,30.23,ESE,104,1.0,10.0,69,0.00,,,0.01,Wunderground v.1.13,2013-01-10 18:45:00,
2013-01-10 12:50:00,38.5,29.2,30.23,ENE,78,2.0,10.0,69,0.00,,,0.01,Wunderground v.1.13,2013-01-10 18:50:00,
2013-01-10 12:55:00,38.5,28.9,30.23,East,94,3.0,10.0,68,0.00,,,0.01,Wunderground v.1.13,2013-01-10 18:55:00,
2013-01-10 13:05:00,38.6,28.9,30.22,ESE,105,2.0,2.0,68,0.00,,,0.01,Wunderground v.1.13,2013-01-10 19:05:00,
2013-01-10 13:15:00,38.8,29.1,30.22,ESE,113,2.0,10.0,68,0.00,,,0.01,Wunderground v.1.13,2013-01-10 19:15:00,
2013-01-10 13:25:00,38.9,29.2,30.20,SE,134,4.0,4.0,68,0.00,,,0.01,Wunderground v.1.13,2013-01-10 19:25:00,
2013-01-10 13:35:00,39.2,29.2,30.19,ESE,115,4.0,4.0,67,0.00,,,0.01,Wunderground v.1.13,2013-01-10 19:35:00,
2013-01-10 13:45:00,39.5,29.1,30.19,East,91,2.0,2.0,66,0.00,,,0.01,Wunderground v.1.13,2013-01-10 19:45:00,
2013-01-10 13:55:00,39.5,29.1,30.18,ESE,103,2.0,2.0,66,0.00,,,0.01,Wunderground v.1.13,2013-01-10 19:55:00,
2013-01-10 14:05:00,39.5,29.1,30.18,ESE,118,1.0,1.0,66,0.00,,,0.01,Wunderground v.1.13,2013-01-10 20:05:00,
2013-01-10 14:15:00,39.5,29.1,30.18,East,101,1.0,10.0,66,0.00,,,0.01,Wunderground v.1.13,2013-01-10 20:15:00,
2013-01-10 14:25:00,39.6,28.8,30.17,ESE,102,2.0,2.0,65,0.00,,,0.01,Wunderground v.1.13,2013-01-10 20:25:00,
2013-01-10 14:30:00,39.8,28.6,30.17,East,100,2.0,2.0,64,0.00,,,0.01,Wunderground v.1.13,2013-01-10 20:30:00,
2013-01-10 14:40:00,39.6,28.0,30.17,East,98,1.0,1.0,63,0.00,,,0.01,Wunderground v.1.13,2013-01-10 20:40:00,
2013-01-10 14:45:00,39.5,27.9,30.17,ESE,106,2.0,10.0,63,0.00,,,0.01,Wunderground v.1.13,2013-01-10 20:45:00,
2013-01-10 15:00:00,39.3,27.7,30.16,East,98,3.0,3.0,63,0.00,,,0.01,Wunderground v.1.13,2013-01-10 21:00:00,
2013-01-10 15:05:00,39.3,27.4,30.16,East,99,2.0,2.0,62,0.00,,,0.01,Wunderground v.1.13,2013-01-10 21:05:00,
2013-01-10 15:10:00,39.2,27.7,30.16,ESE,103,1.0,10.0,63,0.00,,,0.01,Wunderground v.1.13,2013-01-10 21:10:00,
2013-01-10 15:20:00,39.2,27.3,30.15,East,99,3.0,10.0,62,0.00,,,0.01,Wunderground v.1.13,2013-01-10 21:20:00,
2013-01-10 15:25:00,39.2,27.3,30.15,SE,128,2.0,2.0,62,0.00,,,0.01,Wunderground v.1.13,2013-01-10 21:25:00,
2013-01-10 15:35:00,39.3,26.6,30.14,East,95,3.0,3.0,60,0.00,,,0.01,Wunderground v.1.13,2013-01-10 21:35:00,
2013-01-10 15:40:00,39.3,26.6,30.14,East,98,3.0,3.0,60,0.00,,,0.01,Wunderground v.1.13,2013-01-10 21:40:00,
2013-01-10 15:45:00,39.2,26.5,30.14,ESE,105,3.0,13.0,60,0.00,,,0.01,Wunderground v.1.13,2013-01-10 21:45:00,
2013-01-10 15:55:00,39.2,26.1,30.14,ESE,107,4.0,13.0,59,0.00,,,0.01,Wunderground v.1.13,2013-01-10 21:55:00,
2013-01-10 16:00:00,39.1,26.8,30.14,ESE,111,3.0,3.0,61,0.00,,,0.01,Wunderground v.1.13,2013-01-10 22:00:00,
2013-01-10 16:05:00,38.9,26.6,30.13,ESE,105,2.0,2.0,61,0.00,,,0.01,Wunderground v.1.13,2013-01-10 22:05:00,
2013-01-10 16:15:00,38.6,26.7,30.13,East,98,1.0,1.0,62,0.00,,,0.01,Wunderground v.1.13,2013-01-10 22:15:00,
2013-01-10 16:20:00,38.5,27.0,30.12,SE,126,1.0,1.0,63,0.00,,,0.01,Wunderground v.1.13,2013-01-10 22:20:00,
2013-01-10 16:30:00,38.3,27.2,30.12,ESE,117,2.0,11.0,64,0.00,,,0.01,Wunderground v.1.13,2013-01-10 22:30:00,
2013-01-10 16:40:00,38.2,27.8,30.12,East,100,4.0,11.0,66,0.00,,,0.01,Wunderground v.1.13,2013-01-10 22:40:00,
2013-01-10 16:50:00,37.9,28.3,30.10,ESE,110,4.0,11.0,68,0.00,,,0.01,Wunderground v.1.13,2013-01-10 22:50:00,
2013-01-10 16:55:00,37.8,28.2,30.10,ESE,104,4.0,11.0,68,0.00,,,0.01,Wunderground v.1.13,2013-01-10 22:55:00,
2013-01-10 17:05:00,37.6,28.7,30.10,East,85,3.0,13.0,70,0.00,,,0.01,Wunderground v.1.13,2013-01-10 23:05:00,
2013-01-10 17:15:00,37.3,28.8,30.10,East,91,3.0,13.0,71,0.00,,,0.02,Wunderground v.1.13,2013-01-10 23:15:00,
2013-01-10 17:25:00,37.3,28.8,30.10,East,101,3.0,13.0,71,0.00,,,0.02,Wunderground v.1.13,2013-01-10 23:25:00,
2013-01-10 17:35:00,37.0,29.5,30.09,ESE,108,2.0,2.0,74,0.00,,,0.02,Wunderground v.1.13,2013-01-10 23:35:00,
2013-01-10 17:45:00,36.9,29.7,30.09,East,91,3.0,3.0,75,0.00,,,0.02,Wunderground v.1.13,2013-01-10 23:45:00,
2013-01-10 17:55:00,36.6,30.1,30.08,ESE,109,3.0,13.0,77,0.00,,,0.02,Wunderground v.1.13,2013-01-10 23:55:00,
2013-01-10 18:05:00,36.2,30.3,30.06,East,87,4.0,11.0,79,0.00,,,0.03,Wunderground v.1.13,2013-01-11 00:05:00,
2013-01-10 18:15:00,36.0,30.7,30.06,East,100,4.0,4.0,81,0.00,,,0.03,Wunderground v.1.13,2013-01-11 00:15:00,
2013-01-10 18:20:00,35.9,30.9,30.06,ESE,103,4.0,4.0,82,0.00,,,0.04,Wunderground v.1.13,2013-01-11 00:20:00,
2013-01-10 18:25:00,35.8,31.4,30.06,East,93,5.0,11.0,84,0.14,,,0.05,Wunderground v.1.13,2013-01-11 00:25:00,
2013-01-10 18:35:00,35.5,31.7,30.04,East,89,5.0,5.0,86,0.06,,,0.06,Wunderground v.1.13,2013-01-11 00:35:00,
2013-01-10 18:45:00,35.2,32.0,30.04,East,99,3.0,3.0,88,0.05,,,0.06,Wunderground v.1.13,2013-01-11 00:45:00,
2013-01-10 18:50:00,35.2,32.3,30.04,ESE,117,3.0,14.0,89,0.04,,,0.07,Wunderground v.1.13,2013-01-11 00:50:00,
2013-01-10 18:55:00,35.0,32.1,30.04,East,95,2.0,2.0,89,0.04,,,0.07,Wunderground v.1.13,2013-01-11 00:55:00,
2013-01-10 19:05:00,35.0,32.4,30.02,ESE,105,3.0,11.0,90,0.04,,,0.07,Wunderground v.1.13,2013-01-11 01:05:00,
2013-01-10 19:15:00,35.2,32.8,30.02,ESE,106,4.0,4.0,91,0.00,,,0.08,Wunderground v.1.13,2013-01-11 01:15:00,
2013-01-10 19:20:00,35.2,32.8,30.01,ESE,119,5.0,11.0,91,0.00,,,0.08,Wunderground v.1.13,2013-01-11 01:20:00,
2013-01-10 19:30:00,35.2,32.8,30.01,ESE,119,5.0,5.0,91,0.00,,,0.08,Wunderground v.1.13,2013-01-11 01:30:00,
2013-01-10 19:35:00,35.0,32.6,30.00,ESE,114,4.0,14.0,91,0.00,,,0.09,Wunderground v.1.13,2013-01-11 01:35:00,
2013-01-10 19:40:00,35.0,32.6,30.00,East,88,4.0,14.0,91,0.00,,,0.09,Wunderground v.1.13,2013-01-11 01:40:00,
2013-01-10 19:50:00,35.2,33.1,29.99,East,98,3.0,14.0,92,0.00,,,0.09,Wunderground v.1.13,2013-01-11 01:50:00,
2013-01-10 19:55:00,35.2,33.1,29.99,East,82,4.0,4.0,92,0.00,,,0.09,Wunderground v.1.13,2013-01-11 01:55:00,
2013-01-10 20:00:00,35.2,33.1,29.99,ESE,107,3.0,3.0,92,0.00,,,0.09,Wunderground v.1.13,2013-01-11 02:00:00,
2013-01-10 20:05:00,35.2,33.1,29.98,SE,141,3.0,3.0,92,0.00,,,0.10,Wunderground v.1.13,2013-01-11 02:05:00,
2013-01-10 20:15:00,35.2,33.4,29.98,East,100,3.0,3.0,93,0.07,,,0.11,Wunderground v.1.13,2013-01-11 02:15:00,
2013-01-10 20:20:00,35.2,33.4,29.97,East,90,3.0,3.0,93,0.06,,,0.11,Wunderground v.1.13,2013-01-11 02:20:00,
2013-01-10 20:30:00,35.2,33.4,29.97,East,97,2.0,2.0,93,0.05,,,0.12,Wunderground v.1.13,2013-01-11 02:30:00,
2013-01-10 20:35:00,35.2,33.4,29.95,SE,128,2.0,14.0,93,0.05,,,0.12,Wunderground v.1.13,2013-01-11 02:35:00,
2013-01-10 20:45:00,35.0,33.2,29.95,ESE,118,2.0,14.0,93,0.00,,,0.12,Wunderground v.1.13,2013-01-11 02:45:00,
2013-01-10 20:50:00,35.0,33.4,29.94,SE,127,3.0,3.0,94,0.00,,,0.13,Wunderground v.1.13,2013-01-11 02:50:00,
2013-01-10 21:00:00,35.0,33.4,29.94,ESE,102,2.0,2.0,94,0.00,,,0.13,Wunderground v.1.13,2013-01-11 03:00:00,
2013-01-10 21:05:00,35.0,33.4,29.93,ESE,117,2.0,2.0,94,0.00,,,0.13,Wunderground v.1.13,2013-01-11 03:05:00,
2013-01-10 21:15:00,35.0,33.4,29.93,East,101,3.0,12.0,94,0.00,,,0.13,Wunderground v.1.13,2013-01-11 03:15:00,
2013-01-10 21:25:00,35.0,33.4,29.92,ESE,108,1.0,12.0,94,0.00,,,0.14,Wunderground v.1.13,2013-01-11 03:25:00,
2013-01-10 21:35:00,35.0,33.4,29.90,SE,130,1.0,1.0,94,0.04,,,0.15,Wunderground v.1.13,2013-01-11 03:35:00,
2013-01-10 21:40:00,35.0,33.4,29.90,ESE,102,2.0,11.0,94,0.04,,,0.15,Wunderground v.1.13,2013-01-11 03:40:00,
2013-01-10 21:45:00,35.0,33.4,29.90,East,97,2.0,11.0,94,0.04,,,0.15,Wunderground v.1.13,2013-01-11 03:45:00,
2013-01-10 21:50:00,35.0,33.4,29.89,ESE,107,2.0,2.0,94,0.00,,,0.15,Wunderground v.1.13,2013-01-11 03:50:00,
2013-01-10 22:00:00,35.2,33.9,29.89,ESE,103,2.0,11.0,95,0.00,,,0.16,Wunderground v.1.13,2013-01-11 04:00:00,
2013-01-10 22:05:00,35.2,33.9,29.88,ESE,117,2.0,2.0,95,0.00,,,0.16,Wunderground v.1.13,2013-01-11 04:05:00,
2013-01-10 22:15:00,35.2,33.9,29.88,ESE,108,2.0,12.0,95,0.04,,,0.17,Wunderground v.1.13,2013-01-11 04:15:00,
2013-01-10 22:20:00,35.2,33.9,29.88,ESE,121,2.0,2.0,95,0.04,,,0.17,Wunderground v.1.13,2013-01-11 04:20:00,
2013-01-10 22:30:00,35.3,34.0,29.88,SE,127,2.0,12.0,95,0.00,,,0.18,Wunderground v.1.13,2013-01-11 04:30:00,
2013-01-10 22:35:00,35.3,34.0,29.88,SE,138,3.0,12.0,95,0.07,,,0.19,Wunderground v.1.13,2013-01-11 04:35:00,
2013-01-10 22:45:00,35.2,33.9,29.88,SSE,147,2.0,12.0,95,0.09,,,0.20,Wunderground v.1.13,2013-01-11 04:45:00,
2013-01-10 22:50:00,35.2,33.9,29.86,ESE,105,3.0,3.0,95,0.10,,,0.21,Wunderground v.1.13,2013-01-11 04:50:00,
2013-01-10 22:55:00,35.2,33.9,29.86,SSE,150,2.0,12.0,95,0.08,,,0.22,Wunderground v.1.13,2013-01-11 04:55:00,
2013-01-10 23:05:00,35.2,33.9,29.84,ESE,119,3.0,3.0,95,0.11,,,0.23,Wunderground v.1.13,2013-01-11 05:05:00,
2013-01-10 23:10:00,35.2,33.9,29.84,East,97,2.0,13.0,95,0.06,,,0.23,Wunderground v.1.13,2013-01-11 05:10:00,
2013-01-10 23:20:00,35.2,33.9,29.82,SE,140,2.0,2.0,95,0.00,,,0.23,Wunderground v.1.13,2013-01-11 05:20:00,
2013-01-10 23:25:00,35.2,33.9,29.82,ESE,119,2.0,2.0,95,0.00,,,0.24,Wunderground v.1.13,2013-01-11 05:25:00,
2013-01-10 23:30:00,35.3,34.0,29.82,ESE,114,1.0,13.0,95,0.00,,,0.24,Wunderground v.1.13,2013-01-11 05:30:00,
2013-01-10 23:40:00,35.3,34.0,29.80,SE,129,0.0,9.0,95,0.00,,,0.24,Wunderground v.1.13,2013-01-11 05:40:00,
2013-01-10 23:50:00,35.5,34.5,29.80,SE,126,1.0,1.0,96,0.00,,,0.24,Wunderground v.1.13,2013-01-11 05:50:00,
2013-01-10 23:55:00,35.5,34.5,29.80,SE,128,0.0,9.0,96,0.00,,,0.24,Wunderground v.1.13,2013-01-11 05:55:00,